TimeMSK,TemperatureF,Dew PointF,Humidity,Sea Level PressureIn,VisibilityMPH,Wind Direction,Wind SpeedMPH,Gust SpeedMPH,PrecipitationIn,Events,Conditions,WindDirDegrees,DateUTC
12:00 AM,41.0,35.6,81,30.01,6.2,ENE,11.2,-,N/A,,Mostly Cloudy,60,2013-02-20 20:00:00
1:00 AM,46,31,45,29.98,6,ENE,4.5,,,,Overcast,60,2013-02-20 21:00:00
1:00 AM,41.0,35.6,81,30.01,-9999.0,ENE,8.9,-,N/A,,Clear,70,2013-02-20 21:00:00
2:00 AM,41.0,35.6,81,30.04,-9999.0,Variable,2.2,-,N/A,,Clear,0,2013-02-20 22:00:00
3:00 AM,41.0,33.8,76,30.04,-9999.0,East,13.4,-,N/A,,Clear,80,2013-02-20 23:00:00
4:00 AM,42,35,66,30.05,6,ENE,8.9,,,,Overcast,70,2013-02-21 00:00:00
4:00 AM,41.0,33.8,76,30.04,-9999.0,East,13.4,-,N/A,,Clear,80,2013-02-21 00:00:00
5:00 AM,39.2,33.8,81,30.04,-9999.0,East,6.7,-,N/A,,Clear,90,2013-02-21 01:00:00
6:00 AM,39.2,33.8,81,30.06,-9999.0,ENE,11.2,-,N/A,,Clear,70,2013-02-21 02:00:00
7:00 AM,42,34,64,30.08,6,ENE,6.7,,,,Overcast,60,2013-02-21 03:00:00
7:00 AM,41.0,33.8,76,30.06,-9999.0,East,8.9,-,N/A,,Clear,80,2013-02-21 03:00:00
8:00 AM,37.4,33.8,87,30.09,-9999.0,Variable,2.2,-,N/A,,Clear,0,2013-02-21 04:00:00
8:30 AM,39.2,33.8,81,30.09,-9999.0,SSW,2.2,-,N/A,,Clear,210,2013-02-21 04:30:00
9:00 AM,39.2,33.8,81,30.09,-9999.0,Variable,2.2,-,N/A,,Clear,0,2013-02-21 05:00:00
9:30 AM,39.2,35.6,87,30.12,-9999.0,NE,4.5,-,N/A,,Clear,50,2013-02-21 05:30:00
10:00 AM,44,34,57,30.13,6,ENE,2.2,,,,Partly Cloudy,70,2013-02-21 06:00:00
10:00 AM,41.0,35.6,81,30.12,-9999.0,ENE,4.5,-,N/A,,Clear,60,2013-02-21 06:00:00
10:30 AM,44.6,35.6,71,30.12,-9999.0,Variable,2.2,-,N/A,,Clear,0,2013-02-21 06:30:00
11:00 AM,44.6,35.6,71,30.15,-9999.0,Variable,2.2,-,N/A,,Clear,0,2013-02-21 07:00:00
11:30 AM,46.4,35.6,66,30.15,-9999.0,ENE,4.5,-,N/A,,Clear,70,2013-02-21 07:30:00
12:00 PM,46.4,37.4,71,30.15,-9999.0,North,6.7,-,N/A,,Clear,360,2013-02-21 08:00:00
12:30 PM,48.2,37.4,66,30.15,-9999.0,NNE,4.5,-,N/A,,Clear,20,2013-02-21 08:30:00
1:00 PM,48,37,55,30.18,6,WNW,4.5,,,,Mostly Cloudy,290,2013-02-21 09:00:00
1:00 PM,50.0,37.4,62,30.15,-9999.0,Variable,2.2,-,N/A,,Clear,0,2013-02-21 09:00:00
1:30 PM,50.0,37.4,62,30.15,-9999.0,SW,6.7,-,N/A,,Clear,230,2013-02-21 09:30:00
2:00 PM,50.0,39.2,66,30.15,6.2,SW,11.2,-,N/A,,Mostly Cloudy,230,2013-02-21 10:00:00
2:30 PM,50.0,41.0,71,30.15,6.2,SW,11.2,-,N/A,,Mostly Cloudy,230,2013-02-21 10:30:00
3:00 PM,50.0,39.2,66,30.15,6.2,SW,13.4,-,N/A,,Mostly Cloudy,230,2013-02-21 11:00:00
3:30 PM,50.0,39.2,66,30.15,6.2,SW,11.2,-,N/A,,Mostly Cloudy,230,2013-02-21 11:30:00
4:00 PM,49,41,65,30.15,6,SW,6.7,,,,Scattered Clouds,220,2013-02-21 12:00:00
4:00 PM,51.8,39.2,62,30.15,6.2,SW,8.9,-,N/A,,Mostly Cloudy,230,2013-02-21 12:00:00
4:30 PM,50.0,39.2,66,30.12,6.2,WSW,8.9,-,N/A,,Mostly Cloudy,240,2013-02-21 12:30:00
5:00 PM,50.0,41.0,71,30.15,6.2,West,8.9,-,N/A,,Mostly Cloudy,270,2013-02-21 13:00:00
5:30 PM,48.2,35.6,62,30.15,6.2,West,11.2,-,N/A,,Mostly Cloudy,280,2013-02-21 13:30:00
6:00 PM,46.4,37.4,71,30.15,6.2,WNW,11.2,-,N/A,,Scattered Clouds,290,2013-02-21 14:00:00
6:30 PM,44.6,37.4,76,30.15,6.2,WNW,6.7,-,N/A,,Scattered Clouds,290,2013-02-21 14:30:00
7:00 PM,45,37,64,30.18,6,NNW,2.2,,,,Scattered Clouds,340,2013-02-21 15:00:00
7:00 PM,42.8,35.6,76,30.15,6.2,NNE,6.7,-,N/A,,Scattered Clouds,20,2013-02-21 15:00:00
7:30 PM,41.0,35.6,81,30.15,6.2,ENE,4.5,-,N/A,,Mostly Cloudy,60,2013-02-21 15:30:00
8:00 PM,39.2,35.6,87,30.18,-9999.0,NE,2.2,-,N/A,,Clear,40,2013-02-21 16:00:00
9:00 PM,35.6,33.8,93,30.18,-9999.0,NNE,4.5,-,N/A,,Clear,20,2013-02-21 17:00:00
10:00 PM,42,36,71,30.19,6,NE,4.5,,,,Clear,50,2013-02-21 18:00:00
10:00 PM,35.6,32.0,87,30.18,-9999.0,NE,6.7,-,N/A,,Clear,40,2013-02-21 18:00:00
11:00 PM,35.6,33.8,93,30.18,-9999.0,East,4.5,-,N/A,,Clear,90,2013-02-21 19:00:00